sensor_id;sensor_type;location;lat;lon;timestamp;pressure;altitude;pressure_sealevel;temperature;humidity
9059;BME280;4564;42.034;25.834;2022-12-29T00:01:21;101489.53;;;5.12;100.00
9059;BME280;4564;42.034;25.834;2022-12-29T00:03:49;101491.47;;;5.10;100.00
9059;BME280;4564;42.034;25.834;2022-12-29T00:06:15;101502.34;;;5.08;100.00
9059;BME280;4564;42.034;25.834;2022-12-29T00:08:42;101498.09;;;5.06;100.00
9059;BME280;4564;42.034;25.834;2022-12-29T00:11:10;101486.22;;;5.08;100.00
9059;BME280;4564;42.034;25.834;2022-12-29T00:13:37;101492.94;;;5.03;100.00
9059;BME280;4564;42.034;25.834;2022-12-29T00:16:21;101495.03;;;4.99;100.00
9059;BME280;4564;42.034;25.834;2022-12-29T00:18:49;101487.56;;;5.03;100.00
9059;BME280;4564;42.034;25.834;2022-12-29T00:21:17;101494.91;;;5.01;100.00
9059;BME280;4564;42.034;25.834;2022-12-29T00:24:02;101501.00;;;4.92;100.00
9059;BME280;4564;42.034;25.834;2022-12-29T00:26:46;101499.31;;;4.91;100.00
9059;BME280;4564;42.034;25.834;2022-12-29T00:29:30;101500.25;;;4.79;100.00
9059;BME280;4564;42.034;25.834;2022-12-29T00:32:14;101499.03;;;4.72;100.00
9059;BME280;4564;42.034;25.834;2022-12-29T00:35:08;101503.69;;;4.70;100.00
9059;BME280;4564;42.034;25.834;2022-12-29T00:37:35;101507.72;;;4.64;100.00
9059;BME280;4564;42.034;25.834;2022-12-29T00:40:19;101505.84;;;4.64;100.00
9059;BME280;4564;42.034;25.834;2022-12-29T00:43:03;101502.69;;;4.71;100.00
9059;BME280;4564;42.034;25.834;2022-12-29T00:45:46;101505.84;;;4.53;100.00
9059;BME280;4564;42.034;25.834;2022-12-29T00:48:13;101508.66;;;4.52;100.00
9059;BME280;4564;42.034;25.834;2022-12-29T00:50:41;101506.44;;;4.46;100.00
9059;BME280;4564;42.034;25.834;2022-12-29T00:53:06;101505.69;;;4.44;100.00
9059;BME280;4564;42.034;25.834;2022-12-29T00:55:35;101506.16;;;4.38;100.00
9059;BME280;4564;42.034;25.834;2022-12-29T00:58:02;101495.75;;;4.33;100.00
9059;BME280;4564;42.034;25.834;2022-12-29T01:00:29;101495.25;;;4.28;100.00
9059;BME280;4564;42.034;25.834;2022-12-29T01:02:55;101493.03;;;4.22;100.00
9059;BME280;4564;42.034;25.834;2022-12-29T01:05:22;101492.53;;;4.17;100.00
9059;BME280;4564;42.034;25.834;2022-12-29T01:07:50;101491.91;;;4.13;100.00
9059;BME280;4564;42.034;25.834;2022-12-29T01:10:16;101492.88;;;4.12;100.00
9059;BME280;4564;42.034;25.834;2022-12-29T01:12:42;101495.97;;;4.19;100.00
9059;BME280;4564;42.034;25.834;2022-12-29T01:15:11;101486.03;;;4.08;100.00
9059;BME280;4564;42.034;25.834;2022-12-29T01:17:38;101484.63;;;3.92;100.00
9059;BME280;4564;42.034;25.834;2022-12-29T01:20:05;101484.22;;;3.85;100.00
9059;BME280;4564;42.034;25.834;2022-12-29T01:22:31;101487.25;;;3.80;100.00
9059;BME280;4564;42.034;25.834;2022-12-29T01:24:59;101482.66;;;3.83;100.00
9059;BME280;4564;42.034;25.834;2022-12-29T01:27:26;101483.31;;;3.73;100.00
9059;BME280;4564;42.034;25.834;2022-12-29T01:29:53;101482.25;;;3.76;100.00
9059;BME280;4564;42.034;25.834;2022-12-29T01:32:19;101481.84;;;3.69;100.00
9059;BME280;4564;42.034;25.834;2022-12-29T01:34:46;101478.44;;;3.78;100.00
9059;BME280;4564;42.034;25.834;2022-12-29T01:37:12;101472.88;;;3.82;100.00
9059;BME280;4564;42.034;25.834;2022-12-29T01:39:39;101485.66;;;3.78;100.00
9059;BME280;4564;42.034;25.834;2022-12-29T01:42:09;101477.22;;;3.71;100.00
9059;BME280;4564;42.034;25.834;2022-12-29T01:44:47;101477.16;;;3.60;100.00
9059;BME280;4564;42.034;25.834;2022-12-29T01:47:15;101471.78;;;3.60;100.00
9059;BME280;4564;42.034;25.834;2022-12-29T01:49:45;101469.56;;;3.54;100.00
9059;BME280;4564;42.034;25.834;2022-12-29T01:52:11;101470.75;;;3.50;100.00
9059;BME280;4564;42.034;25.834;2022-12-29T01:54:39;101463.44;;;3.52;100.00
9059;BME280;4564;42.034;25.834;2022-12-29T01:57:10;101468.53;;;3.44;100.00
9059;BME280;4564;42.034;25.834;2022-12-29T01:59:39;101468.38;;;3.46;100.00
9059;BME280;4564;42.034;25.834;2022-12-29T02:02:07;101468.72;;;3.41;100.00
9059;BME280;4564;42.034;25.834;2022-12-29T02:04:34;101461.78;;;3.38;100.00
9059;BME280;4564;42.034;25.834;2022-12-29T02:07:03;101457.94;;;3.30;100.00
9059;BME280;4564;42.034;25.834;2022-12-29T02:09:31;101461.91;;;3.24;100.00
9059;BME280;4564;42.034;25.834;2022-12-29T02:11:58;101467.41;;;3.23;100.00
9059;BME280;4564;42.034;25.834;2022-12-29T02:14:27;101468.47;;;3.20;100.00
9059;BME280;4564;42.034;25.834;2022-12-29T02:16:58;101462.69;;;3.14;100.00
9059;BME280;4564;42.034;25.834;2022-12-29T02:19:41;101465.88;;;3.31;100.00
9059;BME280;4564;42.034;25.834;2022-12-29T02:22:16;101477.38;;;3.21;100.00
9059;BME280;4564;42.034;25.834;2022-12-29T02:24:54;101470.44;;;3.18;100.00
9059;BME280;4564;42.034;25.834;2022-12-29T02:30:13;101474.94;;;3.18;100.00
9059;BME280;4564;42.034;25.834;2022-12-29T02:32:45;101470.22;;;3.09;100.00
9059;BME280;4564;42.034;25.834;2022-12-29T02:35:18;101464.84;;;3.09;100.00
9059;BME280;4564;42.034;25.834;2022-12-29T02:37:52;101469.50;;;3.07;100.00
9059;BME280;4564;42.034;25.834;2022-12-29T02:40:23;101477.91;;;3.13;100.00
9059;BME280;4564;42.034;25.834;2022-12-29T02:42:51;101474.25;;;3.27;100.00
9059;BME280;4564;42.034;25.834;2022-12-29T02:45:26;101468.47;;;3.20;100.00
9059;BME280;4564;42.034;25.834;2022-12-29T02:47:56;101467.94;;;3.28;100.00
9059;BME280;4564;42.034;25.834;2022-12-29T02:50:25;101465.69;;;3.22;100.00
9059;BME280;4564;42.034;25.834;2022-12-29T02:52:54;101464.31;;;3.16;100.00
9059;BME280;4564;42.034;25.834;2022-12-29T02:55:24;101463.78;;;3.11;100.00
9059;BME280;4564;42.034;25.834;2022-12-29T02:58:02;101460.16;;;3.12;100.00
9059;BME280;4564;42.034;25.834;2022-12-29T03:00:32;101464.66;;;3.12;100.00
9059;BME280;4564;42.034;25.834;2022-12-29T03:03:06;101456.53;;;3.01;100.00
9059;BME280;4564;42.034;25.834;2022-12-29T03:05:42;101458.34;;;3.00;100.00
9059;BME280;4564;42.034;25.834;2022-12-29T03:08:14;101459.31;;;2.86;100.00
9059;BME280;4564;42.034;25.834;2022-12-29T03:10:45;101453.13;;;2.86;100.00
9059;BME280;4564;42.034;25.834;2022-12-29T03:13:16;101456.63;;;2.86;100.00
9059;BME280;4564;42.034;25.834;2022-12-29T03:16:07;101459.53;;;2.83;100.00
9059;BME280;4564;42.034;25.834;2022-12-29T03:18:41;101457.81;;;2.82;100.00
9059;BME280;4564;42.034;25.834;2022-12-29T03:21:10;101454.19;;;2.71;100.00
9059;BME280;4564;42.034;25.834;2022-12-29T03:23:38;101450.88;;;2.67;100.00
9059;BME280;4564;42.034;25.834;2022-12-29T03:26:08;101458.47;;;2.73;100.00
9059;BME280;4564;42.034;25.834;2022-12-29T03:28:36;101459.13;;;2.77;100.00
9059;BME280;4564;42.034;25.834;2022-12-29T03:31:04;101453.13;;;2.86;100.00
9059;BME280;4564;42.034;25.834;2022-12-29T03:33:32;101462.22;;;2.96;100.00
9059;BME280;4564;42.034;25.834;2022-12-29T03:36:03;101458.88;;;3.05;100.00
9059;BME280;4564;42.034;25.834;2022-12-29T03:38:31;101464.66;;;3.12;100.00
9059;BME280;4564;42.034;25.834;2022-12-29T03:41:00;101459.16;;;3.13;100.00
9059;BME280;4564;42.034;25.834;2022-12-29T03:43:29;101459.56;;;3.20;100.00
9059;BME280;4564;42.034;25.834;2022-12-29T03:45:56;101451.53;;;3.20;100.00
9059;BME280;4564;42.034;25.834;2022-12-29T03:48:23;101461.53;;;3.18;100.00
9059;BME280;4564;42.034;25.834;2022-12-29T03:50:49;101459.69;;;3.18;100.00
9059;BME280;4564;42.034;25.834;2022-12-29T03:53:17;101466.38;;;3.13;100.00
9059;BME280;4564;42.034;25.834;2022-12-29T03:55:44;101454.34;;;3.18;100.00
9059;BME280;4564;42.034;25.834;2022-12-29T03:58:11;101459.66;;;3.31;100.00
9059;BME280;4564;42.034;25.834;2022-12-29T04:00:37;101466.03;;;3.41;100.00
9059;BME280;4564;42.034;25.834;2022-12-29T04:03:04;101460.22;;;3.47;100.00
9059;BME280;4564;42.034;25.834;2022-12-29T04:05:30;101449.75;;;3.44;100.00
9059;BME280;4564;42.034;25.834;2022-12-29T04:07:57;101457.03;;;3.42;100.00
9059;BME280;4564;42.034;25.834;2022-12-29T04:10:25;101454.16;;;3.45;100.00
9059;BME280;4564;42.034;25.834;2022-12-29T04:12:52;101446.81;;;3.47;100.00
9059;BME280;4564;42.034;25.834;2022-12-29T04:15:18;101455.66;;;3.36;100.00
9059;BME280;4564;42.034;25.834;2022-12-29T04:17:45;101455.66;;;3.36;100.00
9059;BME280;4564;42.034;25.834;2022-12-29T04:20:11;101447.56;;;3.49;100.00
9059;BME280;4564;42.034;25.834;2022-12-29T04:22:59;101440.72;;;3.45;100.00
9059;BME280;4564;42.034;25.834;2022-12-29T04:25:27;101440.06;;;3.42;100.00
9059;BME280;4564;42.034;25.834;2022-12-29T04:27:54;101452.06;;;3.49;100.00
9059;BME280;4564;42.034;25.834;2022-12-29T04:30:20;101454.88;;;3.47;100.00
9059;BME280;4564;42.034;25.834;2022-12-29T04:32:47;101453.28;;;3.45;100.00
9059;BME280;4564;42.034;25.834;2022-12-29T04:35:14;101447.50;;;3.62;100.00
9059;BME280;4564;42.034;25.834;2022-12-29T04:37:41;101448.41;;;3.73;100.00
9059;BME280;4564;42.034;25.834;2022-12-29T04:40:08;101450.38;;;3.71;100.00
9059;BME280;4564;42.034;25.834;2022-12-29T04:42:36;101455.41;;;3.76;100.00
9059;BME280;4564;42.034;25.834;2022-12-29T04:45:03;101463.09;;;3.80;100.00
9059;BME280;4564;42.034;25.834;2022-12-29T04:47:29;101461.63;;;3.76;100.00
9059;BME280;4564;42.034;25.834;2022-12-29T04:49:56;101476.47;;;3.69;100.00
9059;BME280;4564;42.034;25.834;2022-12-29T04:52:22;101465.88;;;3.79;100.00
9059;BME280;4564;42.034;25.834;2022-12-29T04:54:49;101467.50;;;3.82;100.00
9059;BME280;4564;42.034;25.834;2022-12-29T04:57:15;101462.84;;;3.84;100.00
9059;BME280;4564;42.034;25.834;2022-12-29T04:59:43;101465.44;;;3.85;100.00
9059;BME280;4564;42.034;25.834;2022-12-29T05:02:10;101461.78;;;3.86;100.00
9059;BME280;4564;42.034;25.834;2022-12-29T05:04:37;101462.19;;;3.93;100.00
9059;BME280;4564;42.034;25.834;2022-12-29T05:07:03;101463.50;;;3.87;100.00
9059;BME280;4564;42.034;25.834;2022-12-29T05:09:30;101467.75;;;3.90;100.00
9059;BME280;4564;42.034;25.834;2022-12-29T05:11:56;101421.75;;;3.59;100.00
9059;BME280;4564;42.034;25.834;2022-12-29T05:14:23;101463.97;;;3.81;100.00
9059;BME280;4564;42.034;25.834;2022-12-29T05:16:51;101471.84;;;3.71;100.00
9059;BME280;4564;42.034;25.834;2022-12-29T05:19:31;101467.66;;;3.67;100.00
9059;BME280;4564;42.034;25.834;2022-12-29T05:21:58;101463.50;;;3.63;100.00
9059;BME280;4564;42.034;25.834;2022-12-29T05:24:24;101470.06;;;3.59;100.00
9059;BME280;4564;42.034;25.834;2022-12-29T05:26:51;101472.44;;;3.51;100.00
9059;BME280;4564;42.034;25.834;2022-12-29T05:29:17;101463.88;;;3.46;100.00
9059;BME280;4564;42.034;25.834;2022-12-29T05:31:44;101460.13;;;3.49;100.00
9059;BME280;4564;42.034;25.834;2022-12-29T05:34:12;101461.44;;;3.43;100.00
9059;BME280;4564;42.034;25.834;2022-12-29T05:36:39;101466.81;;;3.43;100.00
9059;BME280;4564;42.034;25.834;2022-12-29T05:39:05;101460.41;;;3.33;100.00
9059;BME280;4564;42.034;25.834;2022-12-29T05:41:32;101460.69;;;3.41;100.00
9059;BME280;4564;42.034;25.834;2022-12-29T05:43:59;101464.47;;;3.38;100.00
9059;BME280;4564;42.034;25.834;2022-12-29T05:46:25;101463.28;;;3.30;100.00
9059;BME280;4564;42.034;25.834;2022-12-29T05:48:52;101464.50;;;3.26;100.00
9059;BME280;4564;42.034;25.834;2022-12-29T05:54:23;101473.22;;;3.17;100.00
9059;BME280;4564;42.034;25.834;2022-12-29T05:56:49;101471.81;;;3.24;100.00
9059;BME280;4564;42.034;25.834;2022-12-29T05:59:16;101466.56;;;3.22;100.00
9059;BME280;4564;42.034;25.834;2022-12-29T06:01:42;101477.47;;;3.19;100.00
9059;BME280;4564;42.034;25.834;2022-12-29T06:04:09;101484.22;;;3.25;100.00
9059;BME280;4564;42.034;25.834;2022-12-29T06:06:35;101480.16;;;3.32;100.00
9059;BME280;4564;42.034;25.834;2022-12-29T06:09:02;101489.06;;;3.32;100.00
9059;BME280;4564;42.034;25.834;2022-12-29T06:11:30;101486.34;;;3.45;100.00
9059;BME280;4564;42.034;25.834;2022-12-29T06:13:56;101485.72;;;3.65;100.00
9059;BME280;4564;42.034;25.834;2022-12-29T06:16:23;101489.66;;;3.72;100.00
9059;BME280;4564;42.034;25.834;2022-12-29T06:18:49;101492.22;;;3.98;100.00
9059;BME280;4564;42.034;25.834;2022-12-29T06:21:16;101478.56;;;4.01;100.00
9059;BME280;4564;42.034;25.834;2022-12-29T06:23:43;101481.94;;;4.15;100.00
9059;BME280;4564;42.034;25.834;2022-12-29T06:26:09;101483.44;;;4.31;100.00
9059;BME280;4564;42.034;25.834;2022-12-29T06:28:37;101484.06;;;4.45;100.00
9059;BME280;4564;42.034;25.834;2022-12-29T06:31:04;101485.31;;;4.52;99.85
9059;BME280;4564;42.034;25.834;2022-12-29T06:33:30;101493.75;;;4.59;99.53
9059;BME280;4564;42.034;25.834;2022-12-29T06:35:57;101496.84;;;4.88;98.90
9059;BME280;4564;42.034;25.834;2022-12-29T06:38:23;101496.59;;;5.13;98.62
9059;BME280;4564;42.034;25.834;2022-12-29T06:40:50;101491.47;;;5.21;96.84
9059;BME280;4564;42.034;25.834;2022-12-29T06:43:16;101501.75;;;5.27;96.64
9059;BME280;4564;42.034;25.834;2022-12-29T06:45:44;101503.19;;;5.31;96.20
9059;BME280;4564;42.034;25.834;2022-12-29T06:48:11;101506.75;;;5.21;95.84
9059;BME280;4564;42.034;25.834;2022-12-29T06:50:37;101509.06;;;5.25;95.17
9059;BME280;4564;42.034;25.834;2022-12-29T06:53:04;101509.56;;;5.08;94.92
9059;BME280;4564;42.034;25.834;2022-12-29T06:55:31;101507.59;;;4.99;95.07
9059;BME280;4564;42.034;25.834;2022-12-29T06:57:57;101508.69;;;5.07;95.82
9059;BME280;4564;42.034;25.834;2022-12-29T07:00:24;101504.91;;;4.99;95.92
9059;BME280;4564;42.034;25.834;2022-12-29T07:02:52;101513.00;;;4.99;96.33
9059;BME280;4564;42.034;25.834;2022-12-29T07:05:20;101506.16;;;4.95;96.38
9059;BME280;4564;42.034;25.834;2022-12-29T07:07:47;101506.63;;;5.00;96.88
9059;BME280;4564;42.034;25.834;2022-12-29T07:10:13;101502.50;;;4.96;96.73
9059;BME280;4564;42.034;25.834;2022-12-29T07:12:40;101506.63;;;5.00;95.81
9059;BME280;4564;42.034;25.834;2022-12-29T07:15:07;101499.06;;;5.05;95.75
9059;BME280;4564;42.034;25.834;2022-12-29T07:17:33;101506.03;;;4.85;95.63
9059;BME280;4564;42.034;25.834;2022-12-29T07:20:01;101508.34;;;4.90;96.49
9059;BME280;4564;42.034;25.834;2022-12-29T07:22:28;101511.16;;;5.22;96.18
9059;BME280;4564;42.034;25.834;2022-12-29T07:24:54;101507.13;;;5.27;95.29
9059;BME280;4564;42.034;25.834;2022-12-29T07:27:21;101514.03;;;5.63;95.55
9059;BME280;4564;42.034;25.834;2022-12-29T07:29:48;101521.22;;;5.85;93.85
9059;BME280;4564;42.034;25.834;2022-12-29T07:32:14;101514.38;;;5.92;92.17
9059;BME280;4564;42.034;25.834;2022-12-29T07:34:41;101470.09;;;5.63;91.93
9059;BME280;4564;42.034;25.834;2022-12-29T07:37:11;101518.13;;;6.01;92.89
9059;BME280;4564;42.034;25.834;2022-12-29T07:39:39;101512.13;;;6.08;92.83
9059;BME280;4564;42.034;25.834;2022-12-29T07:42:05;101514.34;;;6.03;91.74
9059;BME280;4564;42.034;25.834;2022-12-29T07:44:33;101511.28;;;5.97;92.84
9059;BME280;4564;42.034;25.834;2022-12-29T07:46:59;101508.34;;;6.00;92.82
9059;BME280;4564;42.034;25.834;2022-12-29T07:49:26;101507.28;;;5.91;92.83
9059;BME280;4564;42.034;25.834;2022-12-29T07:51:53;101515.34;;;5.91;93.52
9059;BME280;4564;42.034;25.834;2022-12-29T07:54:21;101506.25;;;6.03;93.95
9059;BME280;4564;42.034;25.834;2022-12-29T07:56:48;101508.34;;;6.00;94.26
9059;BME280;4564;42.034;25.834;2022-12-29T07:59:15;101505.31;;;5.93;95.40
9059;BME280;4564;42.034;25.834;2022-12-29T08:01:41;101512.00;;;6.10;95.10
9059;BME280;4564;42.034;25.834;2022-12-29T08:04:08;101510.53;;;6.26;95.03
9059;BME280;4564;42.034;25.834;2022-12-29T08:06:35;101514.50;;;6.22;95.60
9059;BME280;4564;42.034;25.834;2022-12-29T08:09:03;101515.75;;;6.18;95.59
9059;BME280;4564;42.034;25.834;2022-12-29T08:11:31;101513.78;;;6.20;95.97
9059;BME280;4564;42.034;25.834;2022-12-29T08:13:58;101506.94;;;6.37;96.96
9059;BME280;4564;42.034;25.834;2022-12-29T08:16:25;101500.31;;;6.62;96.25
9059;BME280;4564;42.034;25.834;2022-12-29T08:18:51;101508.88;;;6.67;96.33
9059;BME280;4564;42.034;25.834;2022-12-29T08:21:18;101521.22;;;6.90;95.65
9059;BME280;4564;42.034;25.834;2022-12-29T08:23:45;101517.25;;;6.94;95.46
9059;BME280;4564;42.034;25.834;2022-12-29T08:26:11;101514.75;;;7.02;96.00
9059;BME280;4564;42.034;25.834;2022-12-29T08:28:39;101519.03;;;7.05;95.66
9059;BME280;4564;42.034;25.834;2022-12-29T08:31:06;101522.59;;;7.05;95.25
9059;BME280;4564;42.034;25.834;2022-12-29T08:33:33;101514.94;;;7.10;95.50
9059;BME280;4564;42.034;25.834;2022-12-29T08:35:59;101506.97;;;7.39;95.02
9059;BME280;4564;42.034;25.834;2022-12-29T08:38:27;101509.69;;;7.49;94.70
9059;BME280;4564;42.034;25.834;2022-12-29T08:40:54;101511.69;;;7.56;93.72
9059;BME280;4564;42.034;25.834;2022-12-29T08:43:20;101500.03;;;7.56;93.94
9059;BME280;4564;42.034;25.834;2022-12-29T08:45:48;101507.56;;;7.62;95.06
9059;BME280;4564;42.034;25.834;2022-12-29T08:48:15;101502.38;;;7.89;93.61
9059;BME280;4564;42.034;25.834;2022-12-29T08:50:44;101505.50;;;7.94;93.15
9059;BME280;4564;42.034;25.834;2022-12-29T08:53:11;101500.13;;;8.04;92.51
9059;BME280;4564;42.034;25.834;2022-12-29T08:55:38;101496.97;;;7.99;92.99
9059;BME280;4564;42.034;25.834;2022-12-29T08:58:04;101495.41;;;8.06;93.04
9059;BME280;4564;42.034;25.834;2022-12-29T09:00:31;101496.13;;;8.18;92.58
9059;BME280;4564;42.034;25.834;2022-12-29T09:02:59;101480.94;;;8.36;92.75
9059;BME280;4564;42.034;25.834;2022-12-29T09:05:26;101475.38;;;8.47;92.42
9059;BME280;4564;42.034;25.834;2022-12-29T09:07:52;101471.75;;;8.66;92.52
9059;BME280;4564;42.034;25.834;2022-12-29T09:10:19;101470.72;;;8.86;91.24
9059;BME280;4564;42.034;25.834;2022-12-29T09:12:46;101471.28;;;8.90;90.27
9059;BME280;4564;42.034;25.834;2022-12-29T09:15:12;101471.25;;;8.99;90.22
9059;BME280;4564;42.034;25.834;2022-12-29T09:17:40;101466.94;;;9.06;89.83
9059;BME280;4564;42.034;25.834;2022-12-29T09:20:09;101462.59;;;9.23;88.57
9059;BME280;4564;42.034;25.834;2022-12-29T09:22:35;101463.59;;;9.49;87.88
9059;BME280;4564;42.034;25.834;2022-12-29T09:25:02;101456.81;;;9.81;85.96
9059;BME280;4564;42.034;25.834;2022-12-29T09:27:29;101456.44;;;10.11;85.56
9059;BME280;4564;42.034;25.834;2022-12-29T09:29:56;101453.00;;;10.19;83.12
9059;BME280;4564;42.034;25.834;2022-12-29T09:32:22;101456.59;;;10.27;83.75
9059;BME280;4564;42.034;25.834;2022-12-29T09:34:49;101449.69;;;10.15;82.95
9059;BME280;4564;42.034;25.834;2022-12-29T09:37:17;101444.91;;;10.09;82.83
9059;BME280;4564;42.034;25.834;2022-12-29T09:39:43;101438.31;;;10.11;83.37
9059;BME280;4564;42.034;25.834;2022-12-29T09:42:12;101431.25;;;10.01;84.47
9059;BME280;4564;42.034;25.834;2022-12-29T09:44:49;101428.94;;;10.06;84.61
9059;BME280;4564;42.034;25.834;2022-12-29T09:47:18;101431.41;;;9.99;83.32
9059;BME280;4564;42.034;25.834;2022-12-29T09:49:46;101383.38;;;9.56;82.63
9059;BME280;4564;42.034;25.834;2022-12-29T09:52:15;101414.84;;;9.85;83.48
9059;BME280;4564;42.034;25.834;2022-12-29T09:54:48;101421.59;;;9.81;83.79
9059;BME280;4564;42.034;25.834;2022-12-29T09:57:18;101407.94;;;9.73;82.75
9059;BME280;4564;42.034;25.834;2022-12-29T09:59:46;101418.78;;;9.73;83.79
9059;BME280;4564;42.034;25.834;2022-12-29T10:02:20;101406.66;;;9.77;84.33
9059;BME280;4564;42.034;25.834;2022-12-29T10:04:50;101407.09;;;9.90;84.32
9059;BME280;4564;42.034;25.834;2022-12-29T10:07:20;101413.91;;;9.94;83.98
9059;BME280;4564;42.034;25.834;2022-12-29T10:09:52;101392.78;;;9.97;84.02
9059;BME280;4564;42.034;25.834;2022-12-29T10:12:22;101386.78;;;9.94;82.76
9059;BME280;4564;42.034;25.834;2022-12-29T10:14:56;101393.91;;;9.95;83.89
9059;BME280;4564;42.034;25.834;2022-12-29T10:17:27;101379.44;;;10.04;83.49
9059;BME280;4564;42.034;25.834;2022-12-29T10:22:45;101378.78;;;10.10;81.74
9059;BME280;4564;42.034;25.834;2022-12-29T10:25:16;101375.47;;;10.16;82.30
9059;BME280;4564;42.034;25.834;2022-12-29T10:27:44;101379.91;;;10.17;83.12
9059;BME280;4564;42.034;25.834;2022-12-29T10:30:13;101373.47;;;10.18;81.00
9059;BME280;4564;42.034;25.834;2022-12-29T10:32:41;101373.72;;;10.33;81.90
9059;BME280;4564;42.034;25.834;2022-12-29T10:35:11;101374.09;;;10.38;82.72
9059;BME280;4564;42.034;25.834;2022-12-29T10:37:41;101366.69;;;10.48;82.35
9059;BME280;4564;42.034;25.834;2022-12-29T10:40:15;101367.06;;;10.53;81.56
9059;BME280;4564;42.034;25.834;2022-12-29T10:42:46;101363.13;;;10.47;81.55
9059;BME280;4564;42.034;25.834;2022-12-29T10:45:17;101361.00;;;10.59;81.81
9059;BME280;4564;42.034;25.834;2022-12-29T10:47:49;101347.91;;;10.46;78.65
9059;BME280;4564;42.034;25.834;2022-12-29T10:50:17;101352.94;;;10.41;78.39
9059;BME280;4564;42.034;25.834;2022-12-29T10:52:43;101347.53;;;10.41;78.95
9059;BME280;4564;42.034;25.834;2022-12-29T10:55:12;101349.25;;;10.50;78.87
9059;BME280;4564;42.034;25.834;2022-12-29T10:57:41;101340.78;;;10.53;78.50
9059;BME280;4564;42.034;25.834;2022-12-29T11:00:11;101341.50;;;10.64;78.72
9059;BME280;4564;42.034;25.834;2022-12-29T11:03:01;101327.44;;;10.60;79.49
9059;BME280;4564;42.034;25.834;2022-12-29T11:05:30;101329.66;;;10.65;78.66
9059;BME280;4564;42.034;25.834;2022-12-29T11:08:00;101337.13;;;10.63;78.89
9059;BME280;4564;42.034;25.834;2022-12-29T11:10:35;101324.72;;;10.60;78.65
9059;BME280;4564;42.034;25.834;2022-12-29T11:13:11;101322.94;;;10.77;79.57
9059;BME280;4564;42.034;25.834;2022-12-29T11:15:38;101324.13;;;10.82;76.41
9059;BME280;4564;42.034;25.834;2022-12-29T11:18:08;101323.28;;;10.82;77.62
9059;BME280;4564;42.034;25.834;2022-12-29T11:20:43;101312.75;;;10.79;77.01
9059;BME280;4564;42.034;25.834;2022-12-29T11:23:20;101303.41;;;10.73;76.77
9059;BME280;4564;42.034;25.834;2022-12-29T11:25:50;101293.78;;;10.87;78.38
9059;BME280;4564;42.034;25.834;2022-12-29T11:28:32;101298.19;;;10.88;78.74
9059;BME280;4564;42.034;25.834;2022-12-29T11:31:00;101296.28;;;10.80;78.39
9059;BME280;4564;42.034;25.834;2022-12-29T11:33:27;101293.06;;;10.77;79.09
9059;BME280;4564;42.034;25.834;2022-12-29T11:35:56;101284.97;;;10.85;78.47
9059;BME280;4564;42.034;25.834;2022-12-29T11:38:26;101283.91;;;10.86;78.80
9059;BME280;4564;42.034;25.834;2022-12-29T11:40:56;101281.53;;;10.83;78.45
9059;BME280;4564;42.034;25.834;2022-12-29T11:43:23;101283.75;;;10.79;79.10
9059;BME280;4564;42.034;25.834;2022-12-29T11:45:54;101277.47;;;10.87;79.56
9059;BME280;4564;42.034;25.834;2022-12-29T11:48:21;101279.03;;;10.98;79.57
9059;BME280;4564;42.034;25.834;2022-12-29T11:50:50;101276.97;;;10.91;78.13
9059;BME280;4564;42.034;25.834;2022-12-29T11:53:19;101267.63;;;10.86;78.95
9059;BME280;4564;42.034;25.834;2022-12-29T11:55:51;101262.53;;;10.91;78.81
9059;BME280;4564;42.034;25.834;2022-12-29T11:58:19;101264.78;;;10.96;79.86
9059;BME280;4564;42.034;25.834;2022-12-29T12:00:45;101265.97;;;10.93;79.06
9059;BME280;4564;42.034;25.834;2022-12-29T12:03:15;101258.81;;;10.92;78.28
9059;BME280;4564;42.034;25.834;2022-12-29T12:05:44;101264.59;;;10.89;76.85
9059;BME280;4564;42.034;25.834;2022-12-29T12:08:17;101262.38;;;10.92;78.53
9059;BME280;4564;42.034;25.834;2022-12-29T12:10:48;101261.38;;;10.93;78.96
9059;BME280;4564;42.034;25.834;2022-12-29T12:13:18;101263.25;;;10.93;78.87
9059;BME280;4564;42.034;25.834;2022-12-29T12:15:47;101256.81;;;10.94;78.47
9059;BME280;4564;42.034;25.834;2022-12-29T12:18:21;101244.75;;;10.97;78.23
9059;BME280;4564;42.034;25.834;2022-12-29T12:20:52;101253.78;;;11.13;77.65
9059;BME280;4564;42.034;25.834;2022-12-29T12:23:36;101246.47;;;11.14;77.48
9059;BME280;4564;42.034;25.834;2022-12-29T12:26:09;101246.78;;;11.03;77.93
9059;BME280;4564;42.034;25.834;2022-12-29T12:28:37;101240.00;;;10.99;78.51
9059;BME280;4564;42.034;25.834;2022-12-29T12:31:06;101243.72;;;10.89;78.45
9059;BME280;4564;42.034;25.834;2022-12-29T12:33:41;101245.59;;;10.97;78.37
9059;BME280;4564;42.034;25.834;2022-12-29T12:36:14;101253.53;;;10.90;78.04
9059;BME280;4564;42.034;25.834;2022-12-29T12:38:48;101239.81;;;10.84;79.18
9059;BME280;4564;42.034;25.834;2022-12-29T12:41:16;101240.81;;;10.91;78.34
9059;BME280;4564;42.034;25.834;2022-12-29T12:43:46;101239.81;;;10.92;77.70
9059;BME280;4564;42.034;25.834;2022-12-29T12:46:23;101242.53;;;10.92;78.06
9059;BME280;4564;42.034;25.834;2022-12-29T12:49:04;101243.34;;;10.76;78.69
9059;BME280;4564;42.034;25.834;2022-12-29T12:51:36;101239.72;;;10.60;79.57
9059;BME280;4564;42.034;25.834;2022-12-29T12:54:12;101230.56;;;10.52;79.37
9059;BME280;4564;42.034;25.834;2022-12-29T12:56:51;101228.56;;;10.63;79.24
9059;BME280;4564;42.034;25.834;2022-12-29T12:59:30;101226.34;;;10.74;78.32
9059;BME280;4564;42.034;25.834;2022-12-29T13:02:01;101228.91;;;10.68;78.60
9059;BME280;4564;42.034;25.834;2022-12-29T13:04:36;101235.50;;;10.65;78.25
9059;BME280;4564;42.034;25.834;2022-12-29T13:07:06;101233.28;;;10.52;79.00
9059;BME280;4564;42.034;25.834;2022-12-29T13:09:42;101233.94;;;10.55;78.90
9059;BME280;4564;42.034;25.834;2022-12-29T13:12:16;101237.34;;;10.57;79.91
9059;BME280;4564;42.034;25.834;2022-12-29T13:14:48;101240.06;;;10.65;80.00
9059;BME280;4564;42.034;25.834;2022-12-29T13:17:19;101240.06;;;10.65;79.63
9059;BME280;4564;42.034;25.834;2022-12-29T13:19:53;101240.56;;;10.52;79.91
9059;BME280;4564;42.034;25.834;2022-12-29T13:22:24;101235.28;;;10.50;80.19